Airfield :
LOGIN :

Register | Disclaimer

   EN    FR    IT 

 










Legend :    VFR   Marginal VFR   IFR   Intensive IFR   Very Intensive IFR
Visi :
Ceiling :
>= 8 km
>= 3000ft
5 to 8 km
1000 to 3000 ft
1500m to 5 km
500 to 1000 ft
800 to 1500m
200 to 500 ft
< 800m
< 200 ft
Symbols :   Thunderstorms  Fog  Heavy snow  Heavy precipitations  Wind > 20 kt
SIGMETs :     Misc.  Thunderstorms  Icing  Turbulence  Mountain Waves  Volcanic Ashes






- Airport Elevation : 788 ft
- IATA code : DCM


LFCK - Castres-Mazamet

CURRENT METAR :
  • 231700Z AUTO 26015KT 9999 -RA FEW019/// BKN026/// BKN031/// ///CB 17/14 Q1019 TEMPO 27018G28KT 4000 SHRA

EXPIRED METARs :
  • 231630Z AUTO 27010KT 9999 -RA BKN030/// OVC035/// ///CB 19/14 Q1019 TEMPO 27018G28KT 4000 SHRA
  • 231600Z AUTO 31007KT 9999 BKN031 OVC038 19/14 Q1019 TEMPO 27018G28KT 4000 SHRA BKN015 FEW030CB OVC040
  • 231530Z AUTO 30009KT 9999 FEW022 SCT027 BKN032 19/15 Q1019 TEMPO 27018G28KT 4000 SHRA BKN015 FEW030CB OVC040
  • 231500Z AUTO 28010KT 9999 BKN019 BKN024 OVC031 19/15 Q1019 TEMPO 27018G28KT 4000 SHRA BKN015 FEW030CB OVC040
  • 231430Z AUTO 29007KT 9999 FEW019 SCT031 BKN037 19/15 Q1019 TEMPO 27018G28KT 4000 SHRA BKN015 FEW030CB OVC040

TAF TAF LFCK
Valid from the 23 at 15:00 until the 24 at 00:00 UTC


231400Z 2315/2324 27008KT 9999 SCT025TCU BKN050
PROB40
TEMPO 2315/2324 4000 SHRA
PROB30
TEMPO 2315/2322 27018G28KT TSRA BKN015 FEW030CB OVC040
PROB40 2320/2324 OVC010



MET'MAP, your aeronautical weather chart ! - Copyright ORBIFLY December 2007 - Disclaimer

ORBIFLY MET'MAP TEAM :

Programming & Development : Alexandra Zaïnal
Concept & original design : Baudouin d'Aumeries
Assistance for programming : Marc-Olivier Méhu
Technical & hardware support : Manuel Goepfert

Contact : metmap@orbifly.com




SOURCES & CREDITS :

   NOAA